createdAt,value
2023-04-10T00:00:21.766Z,0.00
2023-04-10T00:01:21.746Z,0.00
2023-04-10T00:02:21.846Z,0.00
2023-04-10T00:03:21.919Z,0.00
2023-04-10T00:04:21.812Z,0.00
2023-04-10T00:05:21.705Z,0.00
2023-04-10T00:06:21.686Z,0.00
2023-04-10T00:07:21.695Z,0.00
2023-04-10T00:08:21.727Z,0.00
2023-04-10T00:09:21.645Z,0.00
2023-04-10T00:10:21.623Z,0.00
2023-04-10T00:11:21.641Z,0.00
2023-04-10T00:12:21.628Z,0.00
2023-04-10T00:13:21.679Z,0.00
2023-04-10T00:14:21.616Z,0.00
2023-04-10T00:15:21.599Z,0.00
2023-04-10T00:16:21.591Z,0.00
2023-04-10T00:17:21.586Z,0.00
2023-04-10T00:18:21.596Z,0.00
2023-04-10T00:19:21.547Z,0.00
2023-04-10T00:20:21.522Z,0.00
2023-04-10T00:21:21.561Z,0.00
2023-04-10T00:22:21.500Z,0.00
2023-04-10T00:23:21.537Z,0.00
2023-04-10T00:24:21.486Z,0.00
2023-04-10T00:25:21.471Z,0.00
2023-04-10T00:26:21.469Z,0.00
2023-04-10T00:27:21.447Z,0.00
2023-04-10T00:28:21.479Z,0.00
2023-04-10T00:29:21.420Z,0.00
2023-04-10T00:30:21.429Z,0.00
2023-04-10T00:31:21.440Z,0.00
2023-04-10T00:32:21.435Z,0.00
2023-04-10T00:33:21.422Z,0.00
2023-04-10T00:34:21.372Z,0.00
2023-04-10T00:35:21.349Z,0.00
2023-04-10T00:36:21.363Z,0.00
2023-04-10T00:37:21.314Z,0.00
2023-04-10T00:38:21.339Z,0.00
2023-04-10T00:39:21.286Z,0.00
2023-04-10T00:40:21.294Z,0.00
2023-04-10T00:41:21.280Z,0.00
2023-04-10T00:42:21.281Z,0.00
2023-04-10T00:43:21.300Z,0.00
2023-04-10T00:44:21.232Z,0.00
2023-04-10T00:45:21.247Z,0.00
2023-04-10T00:46:21.241Z,0.00
2023-04-10T00:47:21.226Z,0.00
2023-04-10T00:48:21.255Z,0.00
2023-04-10T00:49:21.207Z,0.00
2023-04-10T00:50:21.201Z,0.00
2023-04-10T00:51:21.167Z,0.00
2023-04-10T00:52:21.156Z,0.00
2023-04-10T00:53:21.196Z,0.00
2023-04-10T00:54:21.135Z,0.00
2023-04-10T00:55:21.126Z,0.00
2023-04-10T00:56:21.107Z,0.00
2023-04-10T00:57:21.097Z,0.00
2023-04-10T00:58:21.126Z,0.00
2023-04-10T00:59:21.080Z,0.00
2023-04-10T01:00:21.097Z,0.00
2023-04-10T01:01:21.086Z,0.00
2023-04-10T01:02:21.246Z,0.00
2023-04-10T01:03:21.217Z,0.00
2023-04-10T01:04:21.077Z,0.00
2023-04-10T01:05:21.007Z,0.00
2023-04-10T01:06:20.974Z,0.00
2023-04-10T01:07:20.957Z,0.00
2023-04-10T01:08:21.083Z,0.00
2023-04-10T01:09:20.952Z,0.00
2023-04-10T01:10:20.964Z,0.00
2023-04-10T01:11:20.929Z,0.00
2023-04-10T01:12:20.920Z,0.00
2023-04-10T01:13:20.949Z,0.00
2023-04-10T01:14:20.899Z,0.00
2023-04-10T01:15:20.883Z,0.00
2023-04-10T01:16:20.919Z,0.00
2023-04-10T01:17:20.863Z,0.00
2023-04-10T01:18:20.879Z,0.00
2023-04-10T01:19:20.839Z,0.00
2023-04-10T01:20:20.812Z,0.00
2023-04-10T01:21:20.808Z,0.00
2023-04-10T01:22:20.793Z,0.00
2023-04-10T01:23:20.828Z,0.00
2023-04-10T01:24:20.773Z,0.00
2023-04-10T01:25:20.765Z,0.00
2023-04-10T01:26:20.749Z,0.00
2023-04-10T01:27:20.751Z,0.00
2023-04-10T01:28:20.802Z,0.00
2023-04-10T01:29:20.727Z,0.00
2023-04-10T01:30:20.708Z,0.00
2023-04-10T01:31:20.832Z,0.00
2023-04-10T01:32:20.736Z,0.00
2023-04-10T01:33:20.719Z,0.00
2023-04-10T01:34:20.687Z,0.00
2023-04-10T01:35:20.655Z,0.00
2023-04-10T01:36:20.623Z,0.00
2023-04-10T01:37:20.606Z,0.00
2023-04-10T01:38:20.651Z,0.00
2023-04-10T01:39:20.594Z,0.00
2023-04-10T01:40:20.594Z,0.00
2023-04-10T01:41:20.577Z,0.00
2023-04-10T01:42:20.565Z,0.00
2023-04-10T01:43:20.615Z,0.00
2023-04-10T01:44:20.549Z,0.00
2023-04-10T01:45:20.563Z,0.00
2023-04-10T01:46:20.539Z,0.00
2023-04-10T01:47:20.511Z,0.00
2023-04-10T01:48:20.540Z,0.00
2023-04-10T01:49:20.497Z,0.00
2023-04-10T01:50:20.491Z,0.00
2023-04-10T01:51:20.457Z,0.00
2023-04-10T01:52:20.451Z,0.00
2023-04-10T01:53:20.481Z,0.00
2023-04-10T01:54:20.436Z,0.00
2023-04-10T01:55:20.424Z,0.00
2023-04-10T01:56:20.402Z,0.00
2023-04-10T01:57:20.433Z,0.00
2023-04-10T01:58:20.420Z,0.00
2023-04-10T01:59:20.363Z,0.00
2023-04-10T02:00:20.399Z,0.00
2023-04-10T02:01:29.229Z,0.00
2023-04-10T02:02:21.434Z,0.00
2023-04-10T02:03:20.637Z,0.00
2023-04-10T02:04:20.401Z,0.00
2023-04-10T02:05:20.299Z,0.00
2023-04-10T02:06:20.312Z,0.00
2023-04-10T02:07:20.327Z,0.00
2023-04-10T02:08:20.352Z,0.00
2023-04-10T02:09:20.254Z,0.00
2023-04-10T02:10:20.268Z,0.00
2023-04-10T02:11:20.296Z,0.00
2023-04-10T02:12:20.274Z,0.00
2023-04-10T02:13:20.282Z,0.00
2023-04-10T02:14:20.206Z,0.00
2023-04-10T02:15:20.196Z,0.00
2023-04-10T02:16:20.230Z,0.00
2023-04-10T02:17:20.198Z,0.00
2023-04-10T02:18:20.236Z,0.00
2023-04-10T02:19:20.183Z,0.00
2023-04-10T02:20:20.156Z,0.00
2023-04-10T02:21:20.158Z,0.00
2023-04-10T02:22:20.137Z,0.00
2023-04-10T02:23:20.132Z,0.00
2023-04-10T02:24:20.090Z,0.00
2023-04-10T02:25:20.074Z,0.00
2023-04-10T02:26:20.115Z,0.00
2023-04-10T02:27:20.040Z,0.00
2023-04-10T02:28:20.098Z,0.00
2023-04-10T02:29:20.046Z,0.00
2023-04-10T02:30:20.100Z,0.00
2023-04-10T02:31:20.066Z,0.00
2023-04-10T02:32:20.115Z,0.00
2023-04-10T02:33:20.040Z,0.00
2023-04-10T02:34:19.982Z,0.00
2023-04-10T02:35:19.965Z,0.00
2023-04-10T02:36:19.975Z,0.00
2023-04-10T02:37:19.946Z,0.00
2023-04-10T02:38:19.984Z,0.00
2023-04-10T02:39:19.931Z,0.00
2023-04-10T02:40:19.918Z,0.00
2023-04-10T02:41:19.900Z,0.00
2023-04-10T02:42:19.885Z,0.00
2023-04-10T02:43:19.874Z,0.00
2023-04-10T02:44:19.907Z,0.00
2023-04-10T02:45:19.850Z,0.00
2023-04-10T02:46:19.865Z,0.00
2023-04-10T02:47:19.871Z,0.00
2023-04-10T02:48:19.815Z,0.00
2023-04-10T02:49:19.872Z,0.00
2023-04-10T02:50:19.785Z,0.00
2023-04-10T02:51:19.774Z,0.00
2023-04-10T02:52:19.774Z,0.00
2023-04-10T02:53:19.758Z,0.00
2023-04-10T02:54:19.784Z,0.00
2023-04-10T02:55:19.733Z,0.00
2023-04-10T02:56:19.736Z,0.00
2023-04-10T02:57:19.708Z,0.00
2023-04-10T02:58:19.708Z,0.00
2023-04-10T02:59:19.723Z,0.00
2023-04-10T03:00:19.686Z,0.00
2023-04-10T03:01:19.818Z,0.00
2023-04-10T03:02:19.701Z,0.00
2023-04-10T03:03:19.723Z,0.00
2023-04-10T03:04:19.947Z,0.00
2023-04-10T03:05:19.607Z,0.00
2023-04-10T03:06:19.624Z,0.00
2023-04-10T03:07:19.592Z,0.00
2023-04-10T03:08:19.581Z,0.00
2023-04-10T03:09:19.633Z,0.00
2023-04-10T03:10:19.573Z,0.00
2023-04-10T03:11:19.544Z,0.00
2023-04-10T03:12:19.531Z,0.00
2023-04-10T03:13:19.545Z,0.00
2023-04-10T03:14:19.557Z,0.00
2023-04-10T03:15:19.492Z,0.00
2023-04-10T03:16:19.592Z,0.00
2023-04-10T03:17:19.469Z,0.00
2023-04-10T03:18:19.496Z,0.00
2023-04-10T03:19:19.492Z,0.00
2023-04-10T03:20:19.443Z,0.00
2023-04-10T03:21:19.439Z,0.00
2023-04-10T03:22:19.432Z,0.00
2023-04-10T03:23:19.494Z,0.00
2023-04-10T03:24:19.449Z,0.00
2023-04-10T03:25:19.393Z,0.00
2023-04-10T03:26:19.378Z,0.00
2023-04-10T03:27:19.362Z,0.00
2023-04-10T03:28:19.349Z,0.00
2023-04-10T03:29:19.383Z,0.00
2023-04-10T03:30:19.382Z,0.00
2023-04-10T03:31:19.342Z,0.00
2023-04-10T03:32:19.316Z,0.00
2023-04-10T03:33:19.289Z,0.00
2023-04-10T03:34:19.317Z,0.00
2023-04-10T03:35:19.263Z,0.00
2023-04-10T03:36:19.326Z,0.00
2023-04-10T03:37:19.246Z,0.00
2023-04-10T03:38:19.253Z,0.00
2023-04-10T03:39:19.295Z,0.00
2023-04-10T03:40:19.222Z,0.00
2023-04-10T03:41:19.197Z,0.00
2023-04-10T03:42:19.203Z,0.00
2023-04-10T03:43:19.180Z,0.00
2023-04-10T03:44:19.211Z,0.00
2023-04-10T03:45:19.163Z,0.00
2023-04-10T03:46:19.194Z,0.00
2023-04-10T03:47:19.141Z,0.00
2023-04-10T03:48:19.125Z,0.00
2023-04-10T03:49:19.144Z,0.00
2023-04-10T03:50:19.100Z,0.00
2023-04-10T03:51:19.084Z,0.00
2023-04-10T03:52:19.108Z,0.00
2023-04-10T03:53:19.082Z,0.00
2023-04-10T03:54:19.114Z,0.00
2023-04-10T03:55:19.170Z,0.00
2023-04-10T03:56:19.056Z,0.00
2023-04-10T03:57:19.019Z,0.00
2023-04-10T03:58:19.005Z,0.00
2023-04-10T03:59:19.040Z,0.00
2023-04-10T04:00:19.018Z,0.00
2023-04-10T04:01:18.967Z,0.00
2023-04-10T04:02:19.128Z,0.00
2023-04-10T04:03:19.150Z,0.00
2023-04-10T04:04:19.052Z,0.00
2023-04-10T04:05:18.950Z,0.00
2023-04-10T04:06:18.922Z,0.00
2023-04-10T04:07:18.914Z,0.00
2023-04-10T04:08:18.897Z,0.00
2023-04-10T04:09:18.918Z,0.00
2023-04-10T04:10:18.872Z,0.00
2023-04-10T04:11:18.859Z,5.62
2023-04-10T04:12:18.849Z,5.62
2023-04-10T04:13:18.850Z,5.62
2023-04-10T04:14:18.866Z,5.62
2023-04-10T04:15:18.809Z,5.62
2023-04-10T04:16:18.837Z,5.62
2023-04-10T04:17:18.779Z,5.62
2023-04-10T04:18:18.781Z,11.25
2023-04-10T04:19:18.805Z,11.25
2023-04-10T04:20:18.749Z,11.25
2023-04-10T04:21:18.746Z,16.88
2023-04-10T04:22:18.738Z,16.88
2023-04-10T04:23:18.705Z,16.88
2023-04-10T04:24:18.764Z,22.50
2023-04-10T04:25:18.708Z,22.50
2023-04-10T04:26:18.694Z,22.50
2023-04-10T04:27:18.665Z,28.12
2023-04-10T04:28:18.664Z,28.12
2023-04-10T04:29:18.688Z,28.12
2023-04-10T04:30:18.780Z,33.75
2023-04-10T04:31:18.775Z,33.75
2023-04-10T04:32:18.918Z,39.38
2023-04-10T04:33:18.682Z,39.38
2023-04-10T04:34:18.742Z,45.00
2023-04-10T04:35:18.682Z,50.62
2023-04-10T04:36:18.618Z,56.25
2023-04-10T04:37:18.583Z,56.25
2023-04-10T04:38:18.548Z,61.88
2023-04-10T04:39:18.603Z,67.50
2023-04-10T04:40:18.534Z,67.50
2023-04-10T04:41:20.482Z,73.12
2023-04-10T04:42:18.523Z,78.75
2023-04-10T04:43:18.492Z,78.75
2023-04-10T04:44:18.559Z,78.75
2023-04-10T04:45:18.465Z,84.38
2023-04-10T04:46:18.487Z,84.38
2023-04-10T04:47:18.455Z,84.38
2023-04-10T04:48:18.466Z,84.38
2023-04-10T04:49:18.463Z,84.38
2023-04-10T04:50:18.404Z,84.38
2023-04-10T04:51:18.468Z,90.00
2023-04-10T04:52:18.398Z,95.62
2023-04-10T04:53:18.367Z,101.25
2023-04-10T04:54:18.426Z,106.88
2023-04-10T04:55:18.462Z,112.50
2023-04-10T04:56:18.382Z,112.50
2023-04-10T04:57:18.334Z,112.50
2023-04-10T04:58:18.325Z,112.50
2023-04-10T04:59:18.361Z,118.12
2023-04-10T05:00:18.290Z,123.75
2023-04-10T05:01:18.330Z,135.00
2023-04-10T05:02:18.294Z,140.62
2023-04-10T05:03:18.446Z,146.25
2023-04-10T05:04:18.475Z,151.88
2023-04-10T05:05:18.233Z,157.50
2023-04-10T05:06:18.222Z,168.75
2023-04-10T05:07:18.235Z,180.00
2023-04-10T05:08:18.206Z,185.62
2023-04-10T05:09:18.275Z,191.25
2023-04-10T05:10:18.244Z,196.88
2023-04-10T05:11:18.167Z,196.88
2023-04-10T05:12:18.150Z,202.50
2023-04-10T05:13:18.140Z,202.50
2023-04-10T05:14:18.199Z,208.12
2023-04-10T05:15:18.156Z,213.75
2023-04-10T05:16:18.140Z,219.38
2023-04-10T05:17:18.114Z,225.00
2023-04-10T05:18:18.241Z,230.62
2023-04-10T05:19:18.139Z,236.25
2023-04-10T05:20:18.066Z,241.88
2023-04-10T05:21:18.056Z,247.50
2023-04-10T05:22:18.707Z,253.12
2023-04-10T05:23:18.025Z,264.38
2023-04-10T05:24:18.076Z,264.38
2023-04-10T05:25:18.009Z,264.38
2023-04-10T05:26:18.024Z,264.38
2023-04-10T05:27:17.994Z,275.62
2023-04-10T05:28:17.991Z,281.25
2023-04-10T05:29:18.009Z,286.88
2023-04-10T05:30:17.977Z,286.88
2023-04-10T05:31:17.946Z,292.50
2023-04-10T05:32:17.933Z,298.12
2023-04-10T05:33:17.912Z,298.12
2023-04-10T05:34:17.946Z,303.75
2023-04-10T05:35:17.882Z,309.38
2023-04-10T05:36:17.958Z,309.38
2023-04-10T05:37:17.902Z,315.00
2023-04-10T05:38:17.873Z,320.62
2023-04-10T05:39:17.900Z,326.25
2023-04-10T05:40:17.861Z,331.88
2023-04-10T05:41:17.825Z,331.88
2023-04-10T05:42:17.874Z,337.50
2023-04-10T05:43:17.802Z,343.12
2023-04-10T05:44:17.797Z,348.75
2023-04-10T05:45:17.825Z,354.38
2023-04-10T05:46:17.882Z,360.00
2023-04-10T05:47:17.803Z,365.62
2023-04-10T05:48:17.867Z,365.62
2023-04-10T05:49:17.730Z,371.25
2023-04-10T05:50:17.770Z,371.25
2023-04-10T05:51:17.737Z,376.88
2023-04-10T05:52:17.763Z,382.50
2023-04-10T05:53:17.689Z,388.12
2023-04-10T05:54:17.695Z,393.75
2023-04-10T05:55:17.708Z,393.75
2023-04-10T05:56:17.665Z,399.38
2023-04-10T05:57:17.664Z,405.00
2023-04-10T05:58:17.634Z,410.62
2023-04-10T05:59:17.607Z,416.25
2023-04-10T06:00:17.634Z,427.50
2023-04-10T06:01:17.602Z,433.12
2023-04-10T06:02:17.748Z,438.75
2023-04-10T06:03:17.658Z,444.38
2023-04-10T06:04:17.747Z,450.00
2023-04-10T06:05:17.760Z,450.00
2023-04-10T06:06:17.547Z,455.62
2023-04-10T06:07:17.604Z,461.25
2023-04-10T06:08:17.517Z,466.88
2023-04-10T06:09:17.523Z,472.50
2023-04-10T06:10:17.601Z,478.12
2023-04-10T06:11:17.483Z,483.75
2023-04-10T06:12:17.486Z,489.38
2023-04-10T06:13:17.467Z,495.00
2023-04-10T06:14:17.445Z,500.62
2023-04-10T06:15:17.530Z,506.25
2023-04-10T06:16:17.450Z,506.25
2023-04-10T06:17:17.411Z,517.50
2023-04-10T06:18:17.411Z,528.75
2023-04-10T06:19:17.380Z,534.38
2023-04-10T06:20:17.419Z,545.62
2023-04-10T06:21:17.349Z,551.25
2023-04-10T06:22:17.359Z,562.50
2023-04-10T06:23:17.352Z,568.12
2023-04-10T06:24:17.326Z,568.12
2023-04-10T06:25:17.367Z,568.12
2023-04-10T06:26:17.302Z,568.12
2023-04-10T06:27:17.288Z,568.12
2023-04-10T06:28:17.271Z,573.75
2023-04-10T06:29:17.260Z,579.38
2023-04-10T06:30:17.333Z,585.00
2023-04-10T06:31:17.281Z,596.25
2023-04-10T06:32:18.028Z,601.88
2023-04-10T06:33:17.323Z,601.88
2023-04-10T06:34:17.210Z,607.50
2023-04-10T06:35:17.290Z,613.12
2023-04-10T06:36:17.213Z,618.75
2023-04-10T06:37:17.174Z,624.38
2023-04-10T06:38:17.182Z,641.25
2023-04-10T06:39:17.150Z,658.12
2023-04-10T06:40:17.224Z,663.75
2023-04-10T06:41:17.168Z,675.00
2023-04-10T06:42:17.112Z,691.88
2023-04-10T06:43:17.138Z,708.75
2023-04-10T06:44:17.109Z,731.25
2023-04-10T06:45:17.122Z,736.88
2023-04-10T06:46:17.104Z,736.88
2023-04-10T06:47:17.086Z,680.62
2023-04-10T06:48:17.046Z,736.88
2023-04-10T06:49:17.058Z,765.00
2023-04-10T06:50:17.088Z,770.62
2023-04-10T06:51:17.020Z,765.00
2023-04-10T06:52:17.004Z,776.25
2023-04-10T06:53:16.989Z,793.12
2023-04-10T06:54:16.989Z,787.50
2023-04-10T06:55:17.134Z,787.50
2023-04-10T06:56:16.995Z,798.75
2023-04-10T06:57:16.944Z,810.00
2023-04-10T06:58:16.929Z,826.88
2023-04-10T06:59:16.921Z,843.75
2023-04-10T07:00:16.966Z,843.75
2023-04-10T07:01:16.985Z,849.38
2023-04-10T07:02:16.907Z,871.88
2023-04-10T07:03:16.913Z,883.12
2023-04-10T07:04:16.906Z,866.25
2023-04-10T07:05:17.092Z,838.12
2023-04-10T07:06:16.942Z,826.88
2023-04-10T07:07:16.978Z,843.75
2023-04-10T07:08:16.833Z,871.88
2023-04-10T07:09:16.835Z,900.00
2023-04-10T07:10:16.854Z,911.25
2023-04-10T07:11:16.820Z,905.62
2023-04-10T07:12:16.761Z,905.62
2023-04-10T07:13:16.784Z,916.88
2023-04-10T07:14:16.782Z,933.75
2023-04-10T07:15:16.824Z,928.12
2023-04-10T07:16:16.826Z,905.62
2023-04-10T07:17:16.716Z,871.88
2023-04-10T07:18:16.703Z,871.88
2023-04-10T07:19:16.696Z,888.75
2023-04-10T07:20:16.721Z,916.88
2023-04-10T07:21:16.677Z,928.12
2023-04-10T07:22:16.661Z,939.38
2023-04-10T07:23:16.657Z,905.62
2023-04-10T07:24:16.660Z,871.88
2023-04-10T07:25:16.670Z,871.88
2023-04-10T07:26:16.599Z,860.62
2023-04-10T07:27:16.599Z,838.12
2023-04-10T07:28:16.595Z,821.25
2023-04-10T07:29:16.578Z,815.62
2023-04-10T07:30:16.637Z,826.88
2023-04-10T07:31:16.564Z,849.38
2023-04-10T07:32:16.729Z,849.38
2023-04-10T07:33:16.677Z,826.88
2023-04-10T07:34:16.518Z,821.25
2023-04-10T07:35:16.570Z,855.00
2023-04-10T07:36:16.586Z,900.00
2023-04-10T07:37:16.499Z,888.75
2023-04-10T07:38:16.467Z,860.62
2023-04-10T07:39:16.486Z,855.00
2023-04-10T07:40:16.492Z,888.75
2023-04-10T07:41:16.466Z,916.88
2023-04-10T07:42:16.441Z,911.25
2023-04-10T07:43:16.432Z,911.25
2023-04-10T07:44:16.407Z,916.88
2023-04-10T07:45:16.459Z,928.12
2023-04-10T07:46:16.482Z,928.12
2023-04-10T07:47:16.405Z,900.00
2023-04-10T07:48:16.362Z,888.75
2023-04-10T07:49:16.376Z,888.75
2023-04-10T07:50:16.443Z,877.50
2023-04-10T07:51:16.345Z,894.38
2023-04-10T07:52:16.306Z,928.12
2023-04-10T07:53:16.305Z,956.25
2023-04-10T07:54:16.292Z,961.88
2023-04-10T07:55:16.315Z,961.88
2023-04-10T07:56:16.258Z,990.00
2023-04-10T07:57:16.280Z,1057.50
2023-04-10T07:58:16.238Z,1096.88
2023-04-10T07:59:16.250Z,1063.12
2023-04-10T08:00:16.279Z,1006.88
2023-04-10T08:01:16.227Z,1001.25
2023-04-10T08:02:16.303Z,1040.62
2023-04-10T08:03:16.437Z,1063.12
2023-04-10T08:04:16.305Z,1074.38
2023-04-10T08:05:16.272Z,1085.62
2023-04-10T08:06:16.149Z,1130.62
2023-04-10T08:07:16.137Z,1170.00
2023-04-10T08:08:16.143Z,1181.25
2023-04-10T08:09:16.113Z,1147.50
2023-04-10T08:10:16.137Z,1164.38
2023-04-10T08:11:16.088Z,1175.62
2023-04-10T08:12:16.075Z,1158.75
2023-04-10T08:13:16.092Z,1170.00
2023-04-10T08:14:18.591Z,1215.00
2023-04-10T08:15:16.102Z,1265.62
2023-04-10T08:16:16.058Z,1316.25
2023-04-10T08:17:16.028Z,1344.38
2023-04-10T08:18:16.016Z,1395.00
2023-04-10T08:19:16.018Z,1434.38
2023-04-10T08:20:16.043Z,1445.62
2023-04-10T08:21:15.979Z,1479.38
2023-04-10T08:22:15.953Z,1704.38
2023-04-10T08:23:20.423Z,1513.12
2023-04-10T08:24:16.949Z,1406.25
2023-04-10T08:25:15.970Z,1440.00
2023-04-10T08:26:15.925Z,1569.38
2023-04-10T08:27:15.921Z,1507.50
2023-04-10T08:28:15.887Z,1406.25
2023-04-10T08:29:15.893Z,1338.75
2023-04-10T08:30:15.919Z,1389.38
2023-04-10T08:31:15.889Z,1462.50
2023-04-10T08:32:15.853Z,1569.38
2023-04-10T08:33:15.950Z,1822.50
2023-04-10T08:34:15.831Z,1743.75
2023-04-10T08:35:15.827Z,1822.50
2023-04-10T08:36:17.677Z,1681.88
2023-04-10T08:37:15.795Z,2019.38
2023-04-10T08:38:15.787Z,2508.75
2023-04-10T08:39:15.781Z,2587.50
2023-04-10T08:40:15.746Z,1867.50
2023-04-10T08:41:15.785Z,1816.88
2023-04-10T08:42:15.748Z,1839.38
2023-04-10T08:43:15.724Z,1935.00
2023-04-10T08:44:15.723Z,2058.75
2023-04-10T08:45:15.696Z,2143.12
2023-04-10T08:46:15.741Z,2598.75
2023-04-10T08:47:15.696Z,3121.88
2023-04-10T08:48:15.673Z,1890.00
2023-04-10T08:49:15.670Z,1963.12
2023-04-10T08:50:15.634Z,2885.62
2023-04-10T08:51:20.096Z,2981.25
2023-04-10T08:52:15.617Z,2413.12
2023-04-10T08:53:15.610Z,2368.12
2023-04-10T08:54:15.592Z,2525.62
2023-04-10T08:55:15.584Z,1974.38
2023-04-10T08:56:15.613Z,1918.12
2023-04-10T08:57:15.554Z,1631.25
2023-04-10T08:58:15.553Z,1625.62
2023-04-10T08:59:15.560Z,1434.38
2023-04-10T09:00:23.064Z,1653.75
2023-04-10T09:01:16.676Z,1715.62
2023-04-10T09:02:15.599Z,1530.00
2023-04-10T09:03:15.588Z,1777.50
2023-04-10T09:04:15.577Z,1636.88
2023-04-10T09:05:15.466Z,1591.88
2023-04-10T09:06:15.486Z,1665.00
2023-04-10T09:07:15.434Z,1743.75
2023-04-10T09:08:15.425Z,1822.50
2023-04-10T09:09:15.428Z,2041.88
2023-04-10T09:10:15.433Z,2362.50
2023-04-10T09:11:15.464Z,2401.88
2023-04-10T09:12:15.401Z,2570.62
2023-04-10T09:13:15.373Z,1878.75
2023-04-10T09:14:15.363Z,1935.00
2023-04-10T09:15:15.382Z,2345.62
2023-04-10T09:16:15.570Z,1653.75
2023-04-10T09:17:15.458Z,1839.38
2023-04-10T09:18:15.327Z,1968.75
2023-04-10T09:19:15.311Z,2109.38
2023-04-10T09:20:15.296Z,2109.38
2023-04-10T09:21:15.334Z,2103.75
2023-04-10T09:22:15.265Z,2143.12
2023-04-10T09:23:15.252Z,2160.00
2023-04-10T09:24:15.228Z,2154.38
2023-04-10T09:25:15.231Z,2131.88
2023-04-10T09:26:15.406Z,2126.25
2023-04-10T09:27:15.254Z,2160.00
2023-04-10T09:28:15.204Z,2188.12
2023-04-10T09:29:15.314Z,2188.12
2023-04-10T09:30:15.184Z,2154.38
2023-04-10T09:31:15.298Z,2199.38
2023-04-10T09:32:15.168Z,2193.75
2023-04-10T09:33:15.179Z,2205.00
2023-04-10T09:34:15.148Z,2131.88
2023-04-10T09:35:15.199Z,2148.75
2023-04-10T09:36:15.197Z,2154.38
2023-04-10T09:37:15.115Z,1968.75
2023-04-10T09:38:15.091Z,1586.25
2023-04-10T09:39:15.092Z,2047.50
2023-04-10T09:40:15.106Z,2176.88
2023-04-10T09:41:15.102Z,2216.25
2023-04-10T09:42:15.087Z,2221.88
2023-04-10T09:43:15.042Z,2221.88
2023-04-10T09:44:15.063Z,2244.38
2023-04-10T09:45:15.043Z,2216.25
2023-04-10T09:46:15.197Z,2244.38
2023-04-10T09:47:15.036Z,2216.25
2023-04-10T09:48:15.036Z,2272.50
2023-04-10T09:49:14.987Z,2272.50
2023-04-10T09:50:15.014Z,2266.88
2023-04-10T09:51:15.041Z,2255.62
2023-04-10T09:52:15.131Z,2255.62
2023-04-10T09:53:14.937Z,2238.75
2023-04-10T09:54:14.925Z,2244.38
2023-04-10T09:55:14.907Z,2233.12
2023-04-10T09:56:14.966Z,1951.88
2023-04-10T09:57:14.913Z,1951.88
2023-04-10T09:58:14.899Z,2261.25
2023-04-10T09:59:14.880Z,2261.25
2023-04-10T10:00:14.869Z,2227.50
2023-04-10T10:01:14.944Z,2289.38
2023-04-10T10:02:14.972Z,2233.12
2023-04-10T10:03:15.001Z,2311.88
2023-04-10T10:04:14.834Z,2216.25
2023-04-10T10:05:14.848Z,2221.88
2023-04-10T10:06:14.842Z,2205.00
2023-04-10T10:07:14.786Z,2278.12
2023-04-10T10:08:14.765Z,2311.88
2023-04-10T10:09:14.816Z,2340.00
2023-04-10T10:10:14.736Z,2351.25
2023-04-10T10:11:14.786Z,2334.38
2023-04-10T10:12:14.707Z,2368.12
2023-04-10T10:13:14.792Z,2351.25
2023-04-10T10:14:14.697Z,2317.50
2023-04-10T10:15:14.690Z,2295.00
2023-04-10T10:16:14.775Z,2300.62
2023-04-10T10:17:14.666Z,2306.25
2023-04-10T10:18:14.645Z,1597.50
2023-04-10T10:19:14.809Z,1822.50
2023-04-10T10:20:14.638Z,2165.62
2023-04-10T10:21:14.716Z,2188.12
2023-04-10T10:22:14.610Z,2216.25
2023-04-10T10:23:14.669Z,2205.00
2023-04-10T10:24:14.612Z,2295.00
2023-04-10T10:25:14.606Z,2244.38
2023-04-10T10:26:14.620Z,2266.88
2023-04-10T10:27:14.540Z,1338.75
2023-04-10T10:28:14.551Z,2283.75
2023-04-10T10:29:14.523Z,2272.50
2023-04-10T10:30:28.296Z,2283.75
2023-04-10T10:31:15.662Z,2323.12
2023-04-10T10:32:14.493Z,2272.50
2023-04-10T10:33:14.514Z,2373.75
2023-04-10T10:34:14.464Z,2227.50
2023-04-10T10:35:14.465Z,2154.38
2023-04-10T10:36:14.528Z,2205.00
2023-04-10T10:37:14.458Z,2221.88
2023-04-10T10:38:14.437Z,2188.12
2023-04-10T10:39:14.417Z,2143.12
2023-04-10T10:40:14.428Z,2176.88
2023-04-10T10:41:14.383Z,2261.25
2023-04-10T10:42:14.447Z,2233.12
2023-04-10T10:43:14.367Z,2261.25
2023-04-10T10:44:14.358Z,2238.75
2023-04-10T10:45:14.334Z,2255.62
2023-04-10T10:46:14.476Z,2266.88
2023-04-10T10:47:14.366Z,2250.00
2023-04-10T10:48:14.331Z,2311.88
2023-04-10T10:49:14.318Z,2295.00
2023-04-10T10:50:14.364Z,2306.25
2023-04-10T10:51:14.297Z,2328.75
2023-04-10T10:52:14.308Z,2356.88
2023-04-10T10:53:14.269Z,2289.38
2023-04-10T10:54:14.313Z,2295.00
2023-04-10T10:55:14.224Z,2283.75
2023-04-10T10:56:14.236Z,2289.38
2023-04-10T10:57:14.263Z,2311.88
2023-04-10T10:58:14.208Z,2300.62
2023-04-10T10:59:14.193Z,2289.38
2023-04-10T11:00:14.203Z,2244.38
2023-04-10T11:01:14.259Z,2216.25
2023-04-10T11:02:14.385Z,2340.00
2023-04-10T11:03:14.328Z,2328.75
2023-04-10T11:04:14.209Z,2317.50
2023-04-10T11:05:14.154Z,2373.75
2023-04-10T11:06:14.119Z,2328.75
2023-04-10T11:07:14.301Z,2311.88
2023-04-10T11:08:14.119Z,2362.50
2023-04-10T11:09:14.099Z,2368.12
2023-04-10T11:10:14.115Z,2368.12
2023-04-10T11:11:14.097Z,2379.38
2023-04-10T11:12:14.090Z,2407.50
2023-04-10T11:13:14.045Z,2396.25
2023-04-10T11:14:14.041Z,2368.12
2023-04-10T11:15:14.124Z,2351.25
2023-04-10T11:16:14.188Z,2334.38
2023-04-10T11:17:14.037Z,2317.50
2023-04-10T11:18:14.021Z,2300.62
2023-04-10T11:19:16.281Z,2266.88
2023-04-10T11:20:13.974Z,2238.75
2023-04-10T11:21:13.952Z,2199.38
2023-04-10T11:22:13.961Z,2205.00
2023-04-10T11:23:13.925Z,2199.38
2023-04-10T11:24:13.914Z,2171.25
2023-04-10T11:25:13.905Z,2165.62
2023-04-10T11:26:13.883Z,2120.62
2023-04-10T11:27:13.912Z,2103.75
2023-04-10T11:28:13.869Z,2115.00
2023-04-10T11:29:13.884Z,2092.50
2023-04-10T11:30:13.911Z,2115.00
2023-04-10T11:31:13.856Z,2143.12
2023-04-10T11:32:14.036Z,2092.50
2023-04-10T11:33:13.806Z,2053.12
2023-04-10T11:34:13.821Z,2064.38
2023-04-10T11:35:13.778Z,2041.88
2023-04-10T11:36:13.762Z,2075.62
2023-04-10T11:37:13.838Z,2160.00
2023-04-10T11:38:13.750Z,2193.75
2023-04-10T11:39:13.719Z,2199.38
2023-04-10T11:40:13.712Z,2171.25
2023-04-10T11:41:13.714Z,2165.62
2023-04-10T11:42:13.756Z,2120.62
2023-04-10T11:43:13.681Z,2103.75
2023-04-10T11:44:13.682Z,2086.88
2023-04-10T11:45:13.687Z,2075.62
2023-04-10T11:46:13.690Z,2053.12
2023-04-10T11:47:13.692Z,2025.00
2023-04-10T11:48:13.651Z,1985.62
2023-04-10T11:49:13.618Z,1923.75
2023-04-10T11:50:13.760Z,1923.75
2023-04-10T11:51:13.604Z,1912.50
2023-04-10T11:52:13.637Z,1929.38
2023-04-10T11:53:13.577Z,1968.75
2023-04-10T11:54:13.633Z,1957.50
2023-04-10T11:55:13.549Z,1884.38
2023-04-10T11:56:13.542Z,1895.62
2023-04-10T11:57:13.558Z,1878.75
2023-04-10T11:58:13.505Z,1895.62
2023-04-10T11:59:13.540Z,1940.62
2023-04-10T12:00:13.603Z,1985.62
2023-04-10T12:01:13.497Z,1957.50
2023-04-10T12:02:13.573Z,1946.25
2023-04-10T12:03:13.609Z,1951.88
2023-04-10T12:04:13.550Z,1963.12
2023-04-10T12:05:13.565Z,1996.88
2023-04-10T12:06:13.427Z,1996.88
2023-04-10T12:07:13.457Z,2002.50
2023-04-10T12:08:13.432Z,1991.25
2023-04-10T12:09:14.436Z,1991.25
2023-04-10T12:10:13.519Z,1991.25
2023-04-10T12:11:13.387Z,2019.38
2023-04-10T12:12:13.405Z,2013.75
2023-04-10T12:13:13.368Z,2041.88
2023-04-10T12:14:13.378Z,2030.62
2023-04-10T12:15:13.345Z,2002.50
2023-04-10T12:16:13.575Z,1974.38
2023-04-10T12:17:13.378Z,1963.12
2023-04-10T12:18:13.296Z,1974.38
2023-04-10T12:19:13.300Z,1991.25
2023-04-10T12:20:13.279Z,1996.88
2023-04-10T12:21:13.260Z,1985.62
2023-04-10T12:22:14.084Z,1974.38
2023-04-10T12:23:13.249Z,2002.50
2023-04-10T12:24:13.284Z,1974.38
2023-04-10T12:25:13.212Z,1845.00
2023-04-10T12:26:13.215Z,1963.12
2023-04-10T12:27:13.236Z,1906.88
2023-04-10T12:28:13.207Z,1940.62
2023-04-10T12:29:13.170Z,1935.00
2023-04-10T12:30:13.178Z,1918.12
2023-04-10T12:31:13.192Z,1940.62
2023-04-10T12:32:13.203Z,2008.12
2023-04-10T12:33:13.132Z,2025.00
2023-04-10T12:34:13.129Z,2030.62
2023-04-10T12:35:13.133Z,1974.38
2023-04-10T12:36:13.105Z,2036.25